sensor_id;sensor_type;location;lat;lon;timestamp;temperature;humidity
12470;DHT22;36499;46.484;13.832;2023-04-25T00:00:10;2.90;99.90
12470;DHT22;36499;46.484;13.832;2023-04-25T00:02:39;2.90;99.90
12470;DHT22;36499;46.484;13.832;2023-04-25T00:05:07;2.90;99.90
12470;DHT22;36499;46.484;13.832;2023-04-25T00:07:35;2.90;99.90
12470;DHT22;36499;46.484;13.832;2023-04-25T00:10:02;2.90;99.90
12470;DHT22;36499;46.484;13.832;2023-04-25T00:12:29;2.90;99.90
12470;DHT22;36499;46.484;13.832;2023-04-25T00:14:57;2.80;99.90
12470;DHT22;36499;46.484;13.832;2023-04-25T00:17:25;2.70;99.90
12470;DHT22;36499;46.484;13.832;2023-04-25T00:19:53;2.70;99.90
12470;DHT22;36499;46.484;13.832;2023-04-25T00:22:21;2.70;99.90
12470;DHT22;36499;46.484;13.832;2023-04-25T00:24:48;2.70;99.90
12470;DHT22;36499;46.484;13.832;2023-04-25T00:27:15;2.70;99.90
12470;DHT22;36499;46.484;13.832;2023-04-25T00:29:43;2.60;99.90
12470;DHT22;36499;46.484;13.832;2023-04-25T00:32:10;2.70;99.90
12470;DHT22;36499;46.484;13.832;2023-04-25T00:34:37;2.60;99.90
12470;DHT22;36499;46.484;13.832;2023-04-25T00:37:06;2.60;99.90
12470;DHT22;36499;46.484;13.832;2023-04-25T00:39:33;2.60;99.90
12470;DHT22;36499;46.484;13.832;2023-04-25T00:42:00;2.60;99.90
12470;DHT22;36499;46.484;13.832;2023-04-25T00:44:29;2.50;99.90
12470;DHT22;36499;46.484;13.832;2023-04-25T00:46:57;2.50;99.90
12470;DHT22;36499;46.484;13.832;2023-04-25T00:49:24;2.50;99.90
12470;DHT22;36499;46.484;13.832;2023-04-25T00:51:52;2.40;99.90
12470;DHT22;36499;46.484;13.832;2023-04-25T00:54:20;2.40;99.90
12470;DHT22;36499;46.484;13.832;2023-04-25T00:56:47;2.40;99.90
12470;DHT22;36499;46.484;13.832;2023-04-25T00:59:14;2.40;99.90
12470;DHT22;36499;46.484;13.832;2023-04-25T01:01:42;2.30;99.90
12470;DHT22;36499;46.484;13.832;2023-04-25T01:04:10;2.30;99.90
12470;DHT22;36499;46.484;13.832;2023-04-25T01:06:37;2.30;99.90
12470;DHT22;36499;46.484;13.832;2023-04-25T01:09:04;2.20;99.90
12470;DHT22;36499;46.484;13.832;2023-04-25T01:11:33;2.20;99.90
12470;DHT22;36499;46.484;13.832;2023-04-25T01:14:00;2.20;99.90
12470;DHT22;36499;46.484;13.832;2023-04-25T01:16:28;2.20;99.90
12470;DHT22;36499;46.484;13.832;2023-04-25T01:18:55;2.20;99.90
12470;DHT22;36499;46.484;13.832;2023-04-25T01:21:24;2.20;99.90
12470;DHT22;36499;46.484;13.832;2023-04-25T01:23:54;2.20;99.90
12470;DHT22;36499;46.484;13.832;2023-04-25T01:26:21;2.20;99.90
12470;DHT22;36499;46.484;13.832;2023-04-25T01:28:49;2.10;99.90
12470;DHT22;36499;46.484;13.832;2023-04-25T01:31:17;2.10;99.90
12470;DHT22;36499;46.484;13.832;2023-04-25T01:33:46;2.00;99.90
12470;DHT22;36499;46.484;13.832;2023-04-25T01:36:14;2.00;99.90
12470;DHT22;36499;46.484;13.832;2023-04-25T01:38:43;2.00;99.90
12470;DHT22;36499;46.484;13.832;2023-04-25T01:41:13;2.00;99.90
12470;DHT22;36499;46.484;13.832;2023-04-25T01:43:40;2.00;99.90
12470;DHT22;36499;46.484;13.832;2023-04-25T01:46:07;1.90;99.90
12470;DHT22;36499;46.484;13.832;2023-04-25T01:48:34;1.90;99.90
12470;DHT22;36499;46.484;13.832;2023-04-25T01:51:01;1.90;99.90
12470;DHT22;36499;46.484;13.832;2023-04-25T01:53:29;1.80;99.90
12470;DHT22;36499;46.484;13.832;2023-04-25T01:55:58;1.80;99.90
12470;DHT22;36499;46.484;13.832;2023-04-25T01:58:25;1.80;99.90
12470;DHT22;36499;46.484;13.832;2023-04-25T02:00:52;1.80;99.90
12470;DHT22;36499;46.484;13.832;2023-04-25T02:03:19;1.80;99.90
12470;DHT22;36499;46.484;13.832;2023-04-25T02:05:46;1.80;99.90
12470;DHT22;36499;46.484;13.832;2023-04-25T02:08:13;1.80;99.90
12470;DHT22;36499;46.484;13.832;2023-04-25T02:10:43;1.80;99.90
12470;DHT22;36499;46.484;13.832;2023-04-25T02:13:12;1.80;99.90
12470;DHT22;36499;46.484;13.832;2023-04-25T02:15:39;1.70;99.90
12470;DHT22;36499;46.484;13.832;2023-04-25T02:18:06;1.70;99.90
12470;DHT22;36499;46.484;13.832;2023-04-25T02:20:36;1.70;99.90
12470;DHT22;36499;46.484;13.832;2023-04-25T02:23:03;1.80;99.90
12470;DHT22;36499;46.484;13.832;2023-04-25T02:25:30;1.70;99.90
12470;DHT22;36499;46.484;13.832;2023-04-25T02:27:57;1.70;99.90
12470;DHT22;36499;46.484;13.832;2023-04-25T02:30:26;1.70;99.90
12470;DHT22;36499;46.484;13.832;2023-04-25T02:32:53;1.70;99.90
12470;DHT22;36499;46.484;13.832;2023-04-25T02:35:20;1.70;99.90
12470;DHT22;36499;46.484;13.832;2023-04-25T02:37:47;1.80;99.90
12470;DHT22;36499;46.484;13.832;2023-04-25T02:40:15;1.80;99.90
12470;DHT22;36499;46.484;13.832;2023-04-25T02:42:42;1.80;99.90
12470;DHT22;36499;46.484;13.832;2023-04-25T02:45:11;1.80;99.90
12470;DHT22;36499;46.484;13.832;2023-04-25T02:47:39;1.80;99.90
12470;DHT22;36499;46.484;13.832;2023-04-25T02:50:07;1.80;99.90
12470;DHT22;36499;46.484;13.832;2023-04-25T02:52:34;1.80;99.90
12470;DHT22;36499;46.484;13.832;2023-04-25T02:55:02;1.70;99.90
12470;DHT22;36499;46.484;13.832;2023-04-25T02:57:29;1.70;99.90
12470;DHT22;36499;46.484;13.832;2023-04-25T02:59:56;1.70;99.90
12470;DHT22;36499;46.484;13.832;2023-04-25T03:02:23;1.60;99.90
12470;DHT22;36499;46.484;13.832;2023-04-25T03:04:51;1.60;99.90
12470;DHT22;36499;46.484;13.832;2023-04-25T03:07:19;1.50;99.90
12470;DHT22;36499;46.484;13.832;2023-04-25T03:09:46;1.50;99.90
12470;DHT22;36499;46.484;13.832;2023-04-25T03:12:13;1.50;99.90
12470;DHT22;36499;46.484;13.832;2023-04-25T03:14:40;1.60;99.90
12470;DHT22;36499;46.484;13.832;2023-04-25T03:17:07;1.50;99.90
12470;DHT22;36499;46.484;13.832;2023-04-25T03:19:34;1.60;99.90
12470;DHT22;36499;46.484;13.832;2023-04-25T03:22:02;1.60;99.90
12470;DHT22;36499;46.484;13.832;2023-04-25T03:24:29;1.60;99.90
12470;DHT22;36499;46.484;13.832;2023-04-25T03:26:56;1.50;99.90
12470;DHT22;36499;46.484;13.832;2023-04-25T03:29:24;1.50;99.90
12470;DHT22;36499;46.484;13.832;2023-04-25T03:31:52;1.50;99.90
12470;DHT22;36499;46.484;13.832;2023-04-25T03:34:19;1.50;99.90
12470;DHT22;36499;46.484;13.832;2023-04-25T03:36:47;1.50;99.90
12470;DHT22;36499;46.484;13.832;2023-04-25T03:39:15;1.40;99.90
12470;DHT22;36499;46.484;13.832;2023-04-25T03:41:42;1.40;99.90
12470;DHT22;36499;46.484;13.832;2023-04-25T03:44:09;1.40;99.90
12470;DHT22;36499;46.484;13.832;2023-04-25T03:46:36;1.40;99.90
12470;DHT22;36499;46.484;13.832;2023-04-25T03:49:03;1.40;99.90
12470;DHT22;36499;46.484;13.832;2023-04-25T03:51:30;1.40;99.90
12470;DHT22;36499;46.484;13.832;2023-04-25T03:53:58;1.30;99.90
12470;DHT22;36499;46.484;13.832;2023-04-25T03:56:26;1.30;99.90
12470;DHT22;36499;46.484;13.832;2023-04-25T03:58:53;1.30;99.90
12470;DHT22;36499;46.484;13.832;2023-04-25T04:01:20;1.30;99.90
12470;DHT22;36499;46.484;13.832;2023-04-25T04:03:47;1.30;99.90
12470;DHT22;36499;46.484;13.832;2023-04-25T04:06:14;1.30;99.90
12470;DHT22;36499;46.484;13.832;2023-04-25T04:08:41;1.30;99.90
12470;DHT22;36499;46.484;13.832;2023-04-25T04:11:08;1.30;99.90
12470;DHT22;36499;46.484;13.832;2023-04-25T04:13:37;1.30;99.90
12470;DHT22;36499;46.484;13.832;2023-04-25T04:16:05;1.20;99.90
12470;DHT22;36499;46.484;13.832;2023-04-25T04:18:32;1.20;99.90
12470;DHT22;36499;46.484;13.832;2023-04-25T04:20:59;1.10;99.90
12470;DHT22;36499;46.484;13.832;2023-04-25T04:23:26;1.10;99.90
12470;DHT22;36499;46.484;13.832;2023-04-25T04:25:54;1.10;99.90
12470;DHT22;36499;46.484;13.832;2023-04-25T04:28:21;1.10;99.90
12470;DHT22;36499;46.484;13.832;2023-04-25T04:30:50;1.10;99.90
12470;DHT22;36499;46.484;13.832;2023-04-25T04:33:18;1.10;99.90
12470;DHT22;36499;46.484;13.832;2023-04-25T04:35:46;1.10;99.90
12470;DHT22;36499;46.484;13.832;2023-04-25T04:38:14;1.10;99.90
12470;DHT22;36499;46.484;13.832;2023-04-25T04:40:41;1.10;99.90
12470;DHT22;36499;46.484;13.832;2023-04-25T04:43:08;1.10;99.90
12470;DHT22;36499;46.484;13.832;2023-04-25T04:45:36;1.20;99.90
12470;DHT22;36499;46.484;13.832;2023-04-25T04:48:07;1.20;99.90
12470;DHT22;36499;46.484;13.832;2023-04-25T04:50:34;1.30;99.90
12470;DHT22;36499;46.484;13.832;2023-04-25T04:53:02;1.30;99.90
12470;DHT22;36499;46.484;13.832;2023-04-25T04:55:30;1.30;99.90
12470;DHT22;36499;46.484;13.832;2023-04-25T04:57:57;1.30;99.90
12470;DHT22;36499;46.484;13.832;2023-04-25T05:00:24;1.30;99.90
12470;DHT22;36499;46.484;13.832;2023-04-25T05:02:52;1.30;99.90
12470;DHT22;36499;46.484;13.832;2023-04-25T05:05:21;1.30;99.90
12470;DHT22;36499;46.484;13.832;2023-04-25T05:07:48;1.30;99.90
12470;DHT22;36499;46.484;13.832;2023-04-25T05:10:15;1.30;99.90
12470;DHT22;36499;46.484;13.832;2023-04-25T05:12:42;1.30;99.90
12470;DHT22;36499;46.484;13.832;2023-04-25T05:15:09;1.30;99.90
12470;DHT22;36499;46.484;13.832;2023-04-25T05:17:37;1.30;99.90
12470;DHT22;36499;46.484;13.832;2023-04-25T05:20:05;1.30;99.90
12470;DHT22;36499;46.484;13.832;2023-04-25T05:22:35;1.40;99.90
12470;DHT22;36499;46.484;13.832;2023-04-25T05:25:03;1.50;99.90
12470;DHT22;36499;46.484;13.832;2023-04-25T05:27:31;1.60;99.90
12470;DHT22;36499;46.484;13.832;2023-04-25T05:29:58;1.70;99.90
12470;DHT22;36499;46.484;13.832;2023-04-25T05:32:25;1.80;99.90
12470;DHT22;36499;46.484;13.832;2023-04-25T05:34:52;2.00;99.90
12470;DHT22;36499;46.484;13.832;2023-04-25T05:37:19;2.10;99.90
12470;DHT22;36499;46.484;13.832;2023-04-25T05:39:48;2.20;99.90
12470;DHT22;36499;46.484;13.832;2023-04-25T05:42:15;2.30;99.90
12470;DHT22;36499;46.484;13.832;2023-04-25T05:44:42;2.40;99.90
12470;DHT22;36499;46.484;13.832;2023-04-25T05:47:09;2.60;99.90
12470;DHT22;36499;46.484;13.832;2023-04-25T05:49:37;2.70;99.90
12470;DHT22;36499;46.484;13.832;2023-04-25T05:52:04;2.90;99.90
12470;DHT22;36499;46.484;13.832;2023-04-25T05:54:31;3.10;99.90
12470;DHT22;36499;46.484;13.832;2023-04-25T05:56:59;3.20;99.90
12470;DHT22;36499;46.484;13.832;2023-04-25T05:59:28;3.30;99.90
12470;DHT22;36499;46.484;13.832;2023-04-25T06:01:55;3.60;99.90
12470;DHT22;36499;46.484;13.832;2023-04-25T06:04:22;3.80;99.90
12470;DHT22;36499;46.484;13.832;2023-04-25T06:06:49;3.90;99.90
12470;DHT22;36499;46.484;13.832;2023-04-25T06:09:16;3.90;99.90
12470;DHT22;36499;46.484;13.832;2023-04-25T06:11:43;4.00;99.90
12470;DHT22;36499;46.484;13.832;2023-04-25T06:14:11;4.10;99.90
12470;DHT22;36499;46.484;13.832;2023-04-25T06:16:38;4.30;99.90
12470;DHT22;36499;46.484;13.832;2023-04-25T06:19:05;4.50;99.90
12470;DHT22;36499;46.484;13.832;2023-04-25T06:21:32;4.70;99.90
12470;DHT22;36499;46.484;13.832;2023-04-25T06:24:00;5.00;99.90
12470;DHT22;36499;46.484;13.832;2023-04-25T06:26:27;5.20;99.90
12470;DHT22;36499;46.484;13.832;2023-04-25T06:28:54;5.30;99.90
12470;DHT22;36499;46.484;13.832;2023-04-25T06:31:22;5.50;99.90
12470;DHT22;36499;46.484;13.832;2023-04-25T06:33:49;5.70;99.90
12470;DHT22;36499;46.484;13.832;2023-04-25T06:36:16;5.80;99.90
12470;DHT22;36499;46.484;13.832;2023-04-25T06:38:43;5.90;99.90
12470;DHT22;36499;46.484;13.832;2023-04-25T06:41:10;6.10;99.90
12470;DHT22;36499;46.484;13.832;2023-04-25T06:43:38;6.20;99.90
12470;DHT22;36499;46.484;13.832;2023-04-25T06:46:05;6.30;99.90
12470;DHT22;36499;46.484;13.832;2023-04-25T06:48:33;6.50;99.90
12470;DHT22;36499;46.484;13.832;2023-04-25T06:51:00;6.60;99.90
12470;DHT22;36499;46.484;13.832;2023-04-25T06:53:27;6.70;99.90
12470;DHT22;36499;46.484;13.832;2023-04-25T06:55:54;6.80;99.90
12470;DHT22;36499;46.484;13.832;2023-04-25T06:58:21;6.80;99.90
12470;DHT22;36499;46.484;13.832;2023-04-25T07:00:48;6.80;99.90
12470;DHT22;36499;46.484;13.832;2023-04-25T07:03:15;6.90;99.90
12470;DHT22;36499;46.484;13.832;2023-04-25T07:05:44;7.00;99.90
12470;DHT22;36499;46.484;13.832;2023-04-25T07:08:11;7.10;99.90
12470;DHT22;36499;46.484;13.832;2023-04-25T07:10:38;7.30;99.90
12470;DHT22;36499;46.484;13.832;2023-04-25T07:13:05;7.40;99.90
12470;DHT22;36499;46.484;13.832;2023-04-25T07:15:32;7.30;99.90
12470;DHT22;36499;46.484;13.832;2023-04-25T07:18:00;7.40;99.90
12470;DHT22;36499;46.484;13.832;2023-04-25T07:20:27;7.50;99.90
12470;DHT22;36499;46.484;13.832;2023-04-25T07:22:55;7.60;99.90
12470;DHT22;36499;46.484;13.832;2023-04-25T07:25:22;7.70;99.90
12470;DHT22;36499;46.484;13.832;2023-04-25T07:27:50;7.80;99.90
12470;DHT22;36499;46.484;13.832;2023-04-25T07:30:17;7.80;99.90
12470;DHT22;36499;46.484;13.832;2023-04-25T07:32:44;7.90;99.90
12470;DHT22;36499;46.484;13.832;2023-04-25T07:35:11;7.90;99.90
12470;DHT22;36499;46.484;13.832;2023-04-25T07:37:38;7.90;99.90
12470;DHT22;36499;46.484;13.832;2023-04-25T07:40:08;8.00;99.90
12470;DHT22;36499;46.484;13.832;2023-04-25T07:42:35;8.00;99.90
12470;DHT22;36499;46.484;13.832;2023-04-25T07:45:03;8.10;99.90
12470;DHT22;36499;46.484;13.832;2023-04-25T07:47:30;8.20;99.90
12470;DHT22;36499;46.484;13.832;2023-04-25T07:49:57;8.30;99.90
12470;DHT22;36499;46.484;13.832;2023-04-25T07:52:24;8.40;99.90
12470;DHT22;36499;46.484;13.832;2023-04-25T07:54:51;8.50;99.90
12470;DHT22;36499;46.484;13.832;2023-04-25T07:57:20;8.50;99.90
12470;DHT22;36499;46.484;13.832;2023-04-25T07:59:47;8.50;99.90
12470;DHT22;36499;46.484;13.832;2023-04-25T08:02:14;8.50;99.90
12470;DHT22;36499;46.484;13.832;2023-04-25T08:04:41;8.50;99.90
12470;DHT22;36499;46.484;13.832;2023-04-25T08:07:08;8.60;99.90
12470;DHT22;36499;46.484;13.832;2023-04-25T08:09:36;8.60;99.90
12470;DHT22;36499;46.484;13.832;2023-04-25T08:12:03;8.60;99.90
12470;DHT22;36499;46.484;13.832;2023-04-25T08:14:32;8.70;99.90
12470;DHT22;36499;46.484;13.832;2023-04-25T08:17:02;8.80;99.90
12470;DHT22;36499;46.484;13.832;2023-04-25T08:19:30;8.90;99.90
12470;DHT22;36499;46.484;13.832;2023-04-25T08:21:57;9.00;99.90
12470;DHT22;36499;46.484;13.832;2023-04-25T08:24:24;9.00;99.90
12470;DHT22;36499;46.484;13.832;2023-04-25T08:26:51;9.00;99.90
12470;DHT22;36499;46.484;13.832;2023-04-25T08:29:19;9.10;99.90
12470;DHT22;36499;46.484;13.832;2023-04-25T08:31:47;9.10;99.90
12470;DHT22;36499;46.484;13.832;2023-04-25T08:34:16;9.20;99.90
12470;DHT22;36499;46.484;13.832;2023-04-25T08:36:43;9.20;99.90
12470;DHT22;36499;46.484;13.832;2023-04-25T08:39:10;9.30;99.90
12470;DHT22;36499;46.484;13.832;2023-04-25T08:41:38;9.30;99.90
12470;DHT22;36499;46.484;13.832;2023-04-25T08:44:10;9.40;99.90
12470;DHT22;36499;46.484;13.832;2023-04-25T08:46:38;9.50;99.90
12470;DHT22;36499;46.484;13.832;2023-04-25T08:49:08;9.60;99.90
12470;DHT22;36499;46.484;13.832;2023-04-25T08:51:39;9.70;99.90
12470;DHT22;36499;46.484;13.832;2023-04-25T08:54:12;9.70;99.90
12470;DHT22;36499;46.484;13.832;2023-04-25T08:56:43;9.90;99.90
12470;DHT22;36499;46.484;13.832;2023-04-25T08:59:11;9.90;99.90
12470;DHT22;36499;46.484;13.832;2023-04-25T09:01:39;10.10;99.90
12470;DHT22;36499;46.484;13.832;2023-04-25T09:04:07;10.10;99.90
12470;DHT22;36499;46.484;13.832;2023-04-25T09:06:34;10.30;99.90
12470;DHT22;36499;46.484;13.832;2023-04-25T09:09:03;10.30;99.90
12470;DHT22;36499;46.484;13.832;2023-04-25T09:11:31;10.30;99.90
12470;DHT22;36499;46.484;13.832;2023-04-25T09:14:12;10.50;99.90
12470;DHT22;36499;46.484;13.832;2023-04-25T09:17:08;10.50;99.90
12470;DHT22;36499;46.484;13.832;2023-04-25T09:19:37;10.50;99.90
12470;DHT22;36499;46.484;13.832;2023-04-25T09:22:06;10.50;99.90
12470;DHT22;36499;46.484;13.832;2023-04-25T09:24:36;10.50;99.90
12470;DHT22;36499;46.484;13.832;2023-04-25T09:27:06;10.60;99.90
12470;DHT22;36499;46.484;13.832;2023-04-25T09:29:35;10.70;99.90
12470;DHT22;36499;46.484;13.832;2023-04-25T09:32:15;10.80;99.90
12470;DHT22;36499;46.484;13.832;2023-04-25T09:34:46;10.90;99.90
12470;DHT22;36499;46.484;13.832;2023-04-25T09:37:18;11.00;99.90
12470;DHT22;36499;46.484;13.832;2023-04-25T09:39:47;11.10;99.90
12470;DHT22;36499;46.484;13.832;2023-04-25T09:42:16;11.20;99.90
12470;DHT22;36499;46.484;13.832;2023-04-25T09:44:44;11.30;99.90
12470;DHT22;36499;46.484;13.832;2023-04-25T09:47:14;11.40;99.90
12470;DHT22;36499;46.484;13.832;2023-04-25T09:49:44;11.60;99.90
12470;DHT22;36499;46.484;13.832;2023-04-25T09:52:15;11.80;99.90
12470;DHT22;36499;46.484;13.832;2023-04-25T09:54:43;11.90;99.90
12470;DHT22;36499;46.484;13.832;2023-04-25T09:57:12;12.00;99.90
12470;DHT22;36499;46.484;13.832;2023-04-25T09:59:44;12.10;99.90
12470;DHT22;36499;46.484;13.832;2023-04-25T10:02:12;12.10;99.90
12470;DHT22;36499;46.484;13.832;2023-04-25T10:04:43;12.20;99.90
12470;DHT22;36499;46.484;13.832;2023-04-25T10:07:14;12.20;99.90
12470;DHT22;36499;46.484;13.832;2023-04-25T10:09:42;12.10;99.90
12470;DHT22;36499;46.484;13.832;2023-04-25T10:12:12;12.10;99.90
12470;DHT22;36499;46.484;13.832;2023-04-25T10:14:40;12.10;99.90
12470;DHT22;36499;46.484;13.832;2023-04-25T10:17:10;12.00;99.90
12470;DHT22;36499;46.484;13.832;2023-04-25T10:19:37;12.00;99.90
12470;DHT22;36499;46.484;13.832;2023-04-25T10:22:08;12.00;99.90
12470;DHT22;36499;46.484;13.832;2023-04-25T10:24:41;12.00;99.90
12470;DHT22;36499;46.484;13.832;2023-04-25T10:27:12;12.10;99.90
12470;DHT22;36499;46.484;13.832;2023-04-25T10:29:41;12.10;99.90
12470;DHT22;36499;46.484;13.832;2023-04-25T10:32:09;12.00;99.90
12470;DHT22;36499;46.484;13.832;2023-04-25T10:34:41;12.00;99.90
12470;DHT22;36499;46.484;13.832;2023-04-25T10:37:13;12.00;99.90
12470;DHT22;36499;46.484;13.832;2023-04-25T10:39:41;12.00;99.90
12470;DHT22;36499;46.484;13.832;2023-04-25T10:42:09;12.10;99.90
12470;DHT22;36499;46.484;13.832;2023-04-25T10:44:37;12.20;99.90
12470;DHT22;36499;46.484;13.832;2023-04-25T10:47:07;12.20;99.90
12470;DHT22;36499;46.484;13.832;2023-04-25T10:49:37;12.30;99.90
12470;DHT22;36499;46.484;13.832;2023-04-25T10:52:17;12.20;99.90
12470;DHT22;36499;46.484;13.832;2023-04-25T10:54:52;12.30;99.90
12470;DHT22;36499;46.484;13.832;2023-04-25T10:57:31;12.30;99.90
12470;DHT22;36499;46.484;13.832;2023-04-25T11:00:10;12.30;99.90
12470;DHT22;36499;46.484;13.832;2023-04-25T11:02:44;12.20;99.90
12470;DHT22;36499;46.484;13.832;2023-04-25T11:05:23;12.20;99.90
12470;DHT22;36499;46.484;13.832;2023-04-25T11:07:58;12.20;99.90
12470;DHT22;36499;46.484;13.832;2023-04-25T11:10:26;12.00;99.90
12470;DHT22;36499;46.484;13.832;2023-04-25T11:12:56;12.00;99.90
12470;DHT22;36499;46.484;13.832;2023-04-25T11:15:23;12.00;99.90
12470;DHT22;36499;46.484;13.832;2023-04-25T11:17:51;12.00;99.90
12470;DHT22;36499;46.484;13.832;2023-04-25T11:20:18;12.00;99.90
12470;DHT22;36499;46.484;13.832;2023-04-25T11:22:46;12.00;99.90
12470;DHT22;36499;46.484;13.832;2023-04-25T11:25:16;12.00;99.90
12470;DHT22;36499;46.484;13.832;2023-04-25T11:27:52;12.00;99.90
12470;DHT22;36499;46.484;13.832;2023-04-25T11:30:22;12.00;99.90
12470;DHT22;36499;46.484;13.832;2023-04-25T11:32:51;12.00;99.90
12470;DHT22;36499;46.484;13.832;2023-04-25T11:35:18;12.00;99.90
12470;DHT22;36499;46.484;13.832;2023-04-25T11:37:48;12.00;99.90
12470;DHT22;36499;46.484;13.832;2023-04-25T11:40:17;12.00;99.90
12470;DHT22;36499;46.484;13.832;2023-04-25T11:42:46;12.10;99.90
12470;DHT22;36499;46.484;13.832;2023-04-25T11:45:14;12.10;99.90
12470;DHT22;36499;46.484;13.832;2023-04-25T11:47:41;12.20;99.90
12470;DHT22;36499;46.484;13.832;2023-04-25T11:50:09;12.30;99.90
12470;DHT22;36499;46.484;13.832;2023-04-25T11:52:40;12.40;99.90
12470;DHT22;36499;46.484;13.832;2023-04-25T11:55:10;12.50;99.90
12470;DHT22;36499;46.484;13.832;2023-04-25T11:57:42;12.50;99.90
12470;DHT22;36499;46.484;13.832;2023-04-25T12:00:12;12.50;99.90
12470;DHT22;36499;46.484;13.832;2023-04-25T12:02:41;12.50;99.90
12470;DHT22;36499;46.484;13.832;2023-04-25T12:05:09;12.50;99.90
12470;DHT22;36499;46.484;13.832;2023-04-25T12:07:37;12.60;99.90
12470;DHT22;36499;46.484;13.832;2023-04-25T12:10:05;12.60;99.90
12470;DHT22;36499;46.484;13.832;2023-04-25T12:12:34;12.60;99.90
12470;DHT22;36499;46.484;13.832;2023-04-25T12:15:11;12.70;99.90
12470;DHT22;36499;46.484;13.832;2023-04-25T12:17:41;12.80;99.90
12470;DHT22;36499;46.484;13.832;2023-04-25T12:20:13;12.70;99.90
12470;DHT22;36499;46.484;13.832;2023-04-25T12:22:42;12.80;99.90
12470;DHT22;36499;46.484;13.832;2023-04-25T12:25:12;12.70;99.90
12470;DHT22;36499;46.484;13.832;2023-04-25T12:27:39;12.70;99.90
12470;DHT22;36499;46.484;13.832;2023-04-25T12:30:09;12.70;99.90
12470;DHT22;36499;46.484;13.832;2023-04-25T12:32:37;12.70;99.90
12470;DHT22;36499;46.484;13.832;2023-04-25T12:35:05;12.60;99.90
12470;DHT22;36499;46.484;13.832;2023-04-25T12:37:33;12.60;99.90
12470;DHT22;36499;46.484;13.832;2023-04-25T12:40:00;12.60;99.90
12470;DHT22;36499;46.484;13.832;2023-04-25T12:42:27;12.60;99.90
12470;DHT22;36499;46.484;13.832;2023-04-25T12:44:54;12.70;99.90
12470;DHT22;36499;46.484;13.832;2023-04-25T12:47:22;12.60;99.90
12470;DHT22;36499;46.484;13.832;2023-04-25T12:49:49;12.70;99.90
12470;DHT22;36499;46.484;13.832;2023-04-25T12:52:16;12.70;99.90
12470;DHT22;36499;46.484;13.832;2023-04-25T12:54:43;12.70;99.90
12470;DHT22;36499;46.484;13.832;2023-04-25T12:57:10;12.70;99.90
12470;DHT22;36499;46.484;13.832;2023-04-25T12:59:37;12.70;99.90
12470;DHT22;36499;46.484;13.832;2023-04-25T13:02:05;12.50;99.90
12470;DHT22;36499;46.484;13.832;2023-04-25T13:04:33;12.40;99.90
12470;DHT22;36499;46.484;13.832;2023-04-25T13:07:00;12.30;99.90
12470;DHT22;36499;46.484;13.832;2023-04-25T13:09:27;12.20;99.90
12470;DHT22;36499;46.484;13.832;2023-04-25T13:11:54;12.00;99.90
12470;DHT22;36499;46.484;13.832;2023-04-25T13:14:21;11.90;99.90
12470;DHT22;36499;46.484;13.832;2023-04-25T13:16:48;11.70;99.90
12470;DHT22;36499;46.484;13.832;2023-04-25T13:19:15;11.60;99.90
12470;DHT22;36499;46.484;13.832;2023-04-25T13:21:44;11.40;99.90
12470;DHT22;36499;46.484;13.832;2023-04-25T13:24:11;11.40;99.90
12470;DHT22;36499;46.484;13.832;2023-04-25T13:26:38;11.30;99.90
12470;DHT22;36499;46.484;13.832;2023-04-25T13:29:05;11.30;99.90
12470;DHT22;36499;46.484;13.832;2023-04-25T13:31:32;11.20;99.90
12470;DHT22;36499;46.484;13.832;2023-04-25T13:34:00;10.90;99.90
12470;DHT22;36499;46.484;13.832;2023-04-25T13:36:27;10.60;99.90
12470;DHT22;36499;46.484;13.832;2023-04-25T13:38:55;10.30;99.90
12470;DHT22;36499;46.484;13.832;2023-04-25T13:41:22;10.00;99.90
12470;DHT22;36499;46.484;13.832;2023-04-25T13:43:49;9.70;99.90
12470;DHT22;36499;46.484;13.832;2023-04-25T13:46:16;9.50;99.90
12470;DHT22;36499;46.484;13.832;2023-04-25T13:48:44;9.40;99.90
12470;DHT22;36499;46.484;13.832;2023-04-25T13:51:14;9.40;99.90
12470;DHT22;36499;46.484;13.832;2023-04-25T13:53:43;9.20;99.90
12470;DHT22;36499;46.484;13.832;2023-04-25T13:56:12;9.00;99.90
12470;DHT22;36499;46.484;13.832;2023-04-25T13:58:39;8.90;99.90
12470;DHT22;36499;46.484;13.832;2023-04-25T14:01:06;8.80;99.90
12470;DHT22;36499;46.484;13.832;2023-04-25T14:03:33;8.80;99.90
12470;DHT22;36499;46.484;13.832;2023-04-25T14:06:00;9.00;99.90
12470;DHT22;36499;46.484;13.832;2023-04-25T14:08:27;9.10;99.90
12470;DHT22;36499;46.484;13.832;2023-04-25T14:10:55;9.30;99.90
12470;DHT22;36499;46.484;13.832;2023-04-25T14:13:23;9.60;99.90
12470;DHT22;36499;46.484;13.832;2023-04-25T14:15:50;9.70;99.90
12470;DHT22;36499;46.484;13.832;2023-04-25T14:18:17;9.90;99.90
12470;DHT22;36499;46.484;13.832;2023-04-25T14:20:45;10.10;99.90
12470;DHT22;36499;46.484;13.832;2023-04-25T14:23:12;10.20;99.90
12470;DHT22;36499;46.484;13.832;2023-04-25T14:25:39;10.40;99.90
12470;DHT22;36499;46.484;13.832;2023-04-25T14:28:07;10.50;99.90
12470;DHT22;36499;46.484;13.832;2023-04-25T14:30:36;10.70;99.90
12470;DHT22;36499;46.484;13.832;2023-04-25T14:33:03;10.80;99.90
12470;DHT22;36499;46.484;13.832;2023-04-25T14:35:30;11.00;99.90
12470;DHT22;36499;46.484;13.832;2023-04-25T14:37:57;11.30;99.90
12470;DHT22;36499;46.484;13.832;2023-04-25T14:40:25;11.40;99.90
12470;DHT22;36499;46.484;13.832;2023-04-25T14:42:53;11.60;99.90
12470;DHT22;36499;46.484;13.832;2023-04-25T14:45:20;11.50;99.90
12470;DHT22;36499;46.484;13.832;2023-04-25T14:47:49;11.60;99.90
12470;DHT22;36499;46.484;13.832;2023-04-25T14:50:16;11.90;99.90
12470;DHT22;36499;46.484;13.832;2023-04-25T14:52:43;12.00;99.90
12470;DHT22;36499;46.484;13.832;2023-04-25T14:55:11;12.10;99.90
12470;DHT22;36499;46.484;13.832;2023-04-25T14:57:38;12.40;99.90
12470;DHT22;36499;46.484;13.832;2023-04-25T15:00:06;12.60;99.90
12470;DHT22;36499;46.484;13.832;2023-04-25T15:02:35;12.80;99.90
12470;DHT22;36499;46.484;13.832;2023-04-25T15:05:04;13.10;99.90
12470;DHT22;36499;46.484;13.832;2023-04-25T15:07:32;13.40;99.90
12470;DHT22;36499;46.484;13.832;2023-04-25T15:10:00;13.60;99.90
12470;DHT22;36499;46.484;13.832;2023-04-25T15:12:28;13.80;99.90
12470;DHT22;36499;46.484;13.832;2023-04-25T15:14:55;13.80;99.90
12470;DHT22;36499;46.484;13.832;2023-04-25T15:17:22;13.80;99.90
12470;DHT22;36499;46.484;13.832;2023-04-25T15:19:49;13.80;99.90
12470;DHT22;36499;46.484;13.832;2023-04-25T15:22:18;13.70;99.90
12470;DHT22;36499;46.484;13.832;2023-04-25T15:24:45;13.80;99.90
12470;DHT22;36499;46.484;13.832;2023-04-25T15:27:12;13.80;99.90
12470;DHT22;36499;46.484;13.832;2023-04-25T15:29:39;13.90;99.90